createdAt,value
2018-07-27T00:01:03.533Z,4.87
2018-07-27T00:03:30.787Z,4.83
2018-07-27T00:05:58.031Z,5.27
2018-07-27T00:08:25.270Z,4.90
2018-07-27T00:10:52.518Z,4.73
2018-07-27T00:13:19.755Z,5.00
2018-07-27T00:15:47.017Z,4.47
2018-07-27T00:18:14.249Z,5.30
2018-07-27T00:20:41.485Z,4.30
2018-07-27T00:23:08.713Z,4.80
2018-07-27T00:25:35.953Z,4.93
2018-07-27T00:28:03.190Z,5.30
2018-07-27T00:30:30.464Z,5.27
2018-07-27T00:32:57.675Z,5.20
2018-07-27T00:35:24.950Z,5.23
2018-07-27T00:37:52.186Z,4.63
2018-07-27T00:40:19.453Z,4.90
2018-07-27T00:42:46.695Z,4.97
2018-07-27T00:45:13.930Z,5.27
2018-07-27T00:47:41.153Z,5.70
2018-07-27T00:50:08.422Z,5.93
2018-07-27T00:52:35.661Z,5.17
2018-07-27T00:55:02.995Z,5.37
2018-07-27T00:57:30.233Z,5.13
2018-07-27T00:59:57.485Z,5.10
2018-07-27T01:02:24.766Z,5.50
2018-07-27T01:04:52.031Z,5.60
2018-07-27T01:07:19.302Z,5.37
2018-07-27T01:09:46.602Z,5.97
2018-07-27T01:12:13.881Z,6.30
2018-07-27T01:14:41.162Z,5.60
2018-07-27T01:17:08.464Z,5.97
2018-07-27T01:19:35.746Z,5.57
2018-07-27T01:22:03.050Z,5.70
2018-07-27T01:24:30.345Z,5.23
2018-07-27T01:26:57.614Z,5.47
2018-07-27T01:29:24.886Z,5.47
2018-07-27T01:31:52.167Z,5.67
2018-07-27T01:34:19.437Z,5.60
2018-07-27T01:36:46.735Z,6.13
2018-07-27T01:39:14.777Z,5.97
2018-07-27T01:41:42.850Z,5.80
2018-07-27T01:44:10.557Z,6.70
2018-07-27T01:46:38.083Z,5.87
2018-07-27T01:49:05.919Z,6.47
2018-07-27T01:51:33.218Z,6.40
2018-07-27T01:54:00.473Z,5.33
2018-07-27T01:56:27.746Z,5.10
2018-07-27T01:58:55.034Z,6.30
2018-07-27T02:01:22.321Z,5.87
2018-07-27T02:03:49.598Z,6.10
2018-07-27T02:06:16.894Z,5.73
2018-07-27T02:08:44.148Z,6.27
2018-07-27T02:11:11.429Z,6.30
2018-07-27T02:13:38.701Z,6.27
2018-07-27T02:16:05.989Z,6.53
2018-07-27T02:18:33.267Z,6.10
2018-07-27T02:21:00.509Z,5.83
2018-07-27T02:23:27.791Z,6.07
2018-07-27T02:25:54.981Z,6.60
2018-07-27T02:28:22.222Z,6.80
2018-07-27T02:30:49.462Z,6.90
2018-07-27T02:33:16.730Z,6.33
2018-07-27T02:35:43.966Z,6.50
2018-07-27T02:38:11.220Z,6.10
2018-07-27T02:40:38.472Z,6.67
2018-07-27T02:43:05.726Z,6.57
2018-07-27T02:45:32.962Z,6.90
2018-07-27T02:48:00.211Z,6.67
2018-07-27T02:50:27.466Z,6.40
2018-07-27T02:56:09.518Z,6.80
2018-07-27T02:58:36.783Z,6.93
2018-07-27T03:01:04.022Z,6.30
2018-07-27T03:03:31.278Z,6.70
2018-07-27T03:05:58.522Z,6.83
2018-07-27T03:08:25.792Z,6.60
2018-07-27T03:10:53.025Z,6.90
2018-07-27T03:13:20.310Z,6.70
2018-07-27T03:15:47.539Z,6.87
2018-07-27T03:18:14.797Z,6.90
2018-07-27T03:20:42.040Z,6.47
2018-07-27T03:23:09.276Z,6.73
2018-07-27T03:25:36.542Z,6.97
2018-07-27T03:28:03.806Z,6.03
2018-07-27T03:30:31.060Z,6.50
2018-07-27T03:32:58.321Z,6.80
2018-07-27T03:35:25.564Z,6.87
2018-07-27T03:37:52.826Z,6.47
2018-07-27T03:40:20.067Z,6.47
2018-07-27T03:42:47.433Z,7.33
2018-07-27T03:45:14.681Z,6.23
2018-07-27T03:47:41.957Z,7.07
2018-07-27T03:50:09.226Z,7.10
2018-07-27T03:52:36.466Z,6.53
2018-07-27T03:55:04.010Z,5.80
2018-07-27T03:57:31.298Z,6.30
2018-07-27T03:59:58.565Z,6.57
2018-07-27T04:02:25.843Z,6.47
2018-07-27T04:04:53.122Z,6.33
2018-07-27T04:07:20.386Z,6.57
2018-07-27T04:09:47.655Z,6.53
2018-07-27T04:12:14.910Z,6.87
2018-07-27T04:14:42.160Z,7.00
2018-07-27T04:17:09.391Z,7.13
2018-07-27T04:19:36.639Z,6.27
2018-07-27T04:22:03.889Z,6.13
2018-07-27T04:24:31.146Z,7.20
2018-07-27T04:26:58.381Z,6.17
2018-07-27T04:29:25.677Z,6.70
2018-07-27T04:31:52.920Z,6.93
2018-07-27T04:34:20.188Z,6.33
2018-07-27T04:36:47.422Z,6.03
2018-07-27T04:39:14.655Z,6.37
2018-07-27T04:41:41.890Z,6.07
2018-07-27T04:44:09.142Z,6.20
2018-07-27T04:46:36.378Z,5.73
2018-07-27T04:49:03.754Z,5.93
2018-07-27T04:51:31.141Z,6.77
2018-07-27T04:53:58.398Z,5.73
2018-07-27T04:56:25.692Z,6.33
2018-07-27T04:58:52.902Z,5.77
2018-07-27T05:01:20.313Z,6.10
2018-07-27T05:03:47.586Z,6.03
2018-07-27T05:06:14.813Z,6.40
2018-07-27T05:08:47.860Z,6.20
2018-07-27T05:11:15.114Z,6.40
2018-07-27T05:13:42.521Z,6.00
2018-07-27T05:16:09.793Z,6.67
2018-07-27T05:18:37.029Z,6.13
2018-07-27T05:21:04.283Z,6.53
2018-07-27T05:23:31.519Z,6.10
2018-07-27T05:25:58.786Z,6.27
2018-07-27T05:28:26.024Z,6.07
2018-07-27T05:30:53.306Z,5.80
2018-07-27T05:33:20.552Z,5.80
2018-07-27T05:35:47.818Z,5.43
2018-07-27T05:38:15.074Z,5.30
2018-07-27T05:40:42.326Z,5.77
2018-07-27T05:43:09.590Z,5.70
2018-07-27T05:45:36.842Z,5.00
2018-07-27T05:48:04.255Z,6.20
2018-07-27T05:50:31.523Z,5.47
2018-07-27T05:52:58.773Z,6.23
2018-07-27T05:55:26.016Z,6.43
2018-07-27T05:57:53.281Z,5.40
2018-07-27T06:00:20.545Z,5.73
2018-07-27T06:02:47.831Z,6.50
2018-07-27T06:05:15.075Z,6.30
2018-07-27T06:07:42.322Z,5.37
2018-07-27T06:13:30.946Z,6.07
2018-07-27T06:15:58.413Z,6.40
2018-07-27T06:18:25.692Z,6.53
2018-07-27T06:20:53.232Z,6.33
2018-07-27T06:23:20.466Z,5.67
2018-07-27T06:25:47.741Z,5.90
2018-07-27T06:28:15.115Z,6.37
2018-07-27T06:30:42.410Z,6.33
2018-07-27T06:33:09.711Z,6.30
2018-07-27T06:35:37.007Z,6.47
2018-07-27T06:38:04.342Z,5.87
2018-07-27T06:40:31.631Z,5.90
2018-07-27T06:42:58.931Z,6.17
2018-07-27T06:45:26.267Z,5.83
2018-07-27T06:47:53.553Z,5.53
2018-07-27T06:50:20.990Z,5.80
2018-07-27T06:52:48.242Z,5.90
2018-07-27T06:55:15.529Z,6.00
2018-07-27T06:57:42.816Z,5.97
2018-07-27T07:00:10.235Z,5.47
2018-07-27T07:02:37.493Z,6.30
2018-07-27T07:05:05.184Z,5.83
2018-07-27T07:07:32.466Z,5.70
2018-07-27T07:09:59.716Z,5.37
2018-07-27T07:12:27.002Z,5.50
2018-07-27T07:14:54.259Z,5.33
2018-07-27T07:17:21.611Z,5.50
2018-07-27T07:19:48.842Z,4.93
2018-07-27T07:22:16.090Z,5.00
2018-07-27T07:24:43.337Z,5.13
2018-07-27T07:27:10.581Z,5.53
2018-07-27T07:29:37.834Z,5.70
2018-07-27T07:32:05.090Z,5.47
2018-07-27T07:34:32.338Z,5.70
2018-07-27T07:36:59.580Z,5.90
2018-07-27T07:39:26.823Z,5.60
2018-07-27T07:41:54.087Z,5.00
2018-07-27T07:44:22.146Z,5.70
2018-07-27T07:46:49.405Z,5.60
2018-07-27T07:49:16.832Z,5.50
2018-07-27T07:51:44.116Z,5.10
2018-07-27T07:54:11.402Z,5.30
2018-07-27T07:56:38.686Z,5.27
2018-07-27T07:59:06.011Z,5.63
2018-07-27T08:01:33.302Z,5.70
2018-07-27T08:04:00.588Z,5.50
2018-07-27T08:06:27.962Z,5.50
2018-07-27T08:08:55.682Z,5.67
2018-07-27T08:11:23.236Z,5.80
2018-07-27T08:13:50.532Z,5.53
2018-07-27T08:16:17.830Z,5.00
2018-07-27T08:18:45.111Z,5.50
2018-07-27T08:21:12.371Z,5.40
2018-07-27T08:23:39.678Z,5.97
2018-07-27T08:27:14.349Z,5.60
2018-07-27T08:29:43.682Z,5.67
2018-07-27T08:32:11.043Z,5.60
2018-07-27T08:34:38.385Z,5.90
2018-07-27T08:37:05.854Z,5.67
2018-07-27T08:39:37.549Z,5.07
2018-07-27T08:42:04.829Z,5.87
2018-07-27T08:44:33.378Z,5.33
2018-07-27T08:47:00.699Z,5.80
2018-07-27T08:49:28.022Z,5.70
2018-07-27T08:52:12.631Z,5.03
2018-07-27T08:54:39.915Z,5.87
2018-07-27T08:57:07.191Z,5.67
2018-07-27T08:59:34.490Z,6.17
2018-07-27T09:02:01.793Z,5.70
2018-07-27T09:04:29.058Z,5.43
2018-07-27T09:06:56.318Z,5.33
2018-07-27T09:11:11.219Z,5.57
2018-07-27T09:13:38.575Z,6.13
2018-07-27T09:16:05.874Z,5.50
2018-07-27T09:18:33.190Z,5.70
2018-07-27T09:21:00.630Z,5.50
2018-07-27T09:23:28.137Z,5.63
2018-07-27T09:25:56.036Z,5.50
2018-07-27T09:28:23.343Z,5.47
2018-07-27T09:30:50.655Z,5.23
2018-07-27T09:33:17.971Z,5.67
2018-07-27T09:35:45.321Z,5.43
2018-07-27T09:38:12.646Z,5.83
2018-07-27T09:40:39.953Z,5.30
2018-07-27T09:43:07.230Z,5.60
2018-07-27T09:45:34.538Z,5.33
2018-07-27T09:48:01.836Z,5.13
2018-07-27T09:50:29.139Z,5.27
2018-07-27T09:52:56.419Z,5.53
2018-07-27T09:55:23.679Z,5.63
2018-07-27T09:57:51.048Z,5.30
2018-07-27T10:00:23.886Z,5.70
2018-07-27T10:02:51.176Z,4.90
2018-07-27T10:05:18.438Z,5.47
2018-07-27T10:07:45.695Z,5.60
2018-07-27T10:10:12.954Z,5.60
2018-07-27T10:12:40.206Z,5.97
2018-07-27T10:15:07.485Z,5.23
2018-07-27T10:17:34.733Z,5.23
2018-07-27T10:20:02.054Z,5.00
2018-07-27T10:22:29.325Z,5.47
2018-07-27T10:24:56.740Z,5.37
2018-07-27T10:27:24.204Z,5.30
2018-07-27T10:29:51.522Z,5.80
2018-07-27T10:32:18.877Z,5.50
2018-07-27T10:34:46.179Z,5.63
2018-07-27T10:37:13.495Z,5.13
2018-07-27T10:39:40.782Z,5.27
2018-07-27T10:42:08.078Z,5.10
2018-07-27T10:44:35.451Z,5.40
2018-07-27T10:47:02.799Z,4.63
2018-07-27T10:49:30.086Z,5.50
2018-07-27T10:51:57.377Z,5.30
2018-07-27T10:54:24.645Z,4.87
2018-07-27T10:56:51.912Z,4.80
2018-07-27T11:02:27.069Z,5.63
2018-07-27T11:04:54.300Z,4.93
2018-07-27T11:07:21.577Z,5.30
2018-07-27T11:09:48.876Z,4.65
2018-07-27T11:12:16.223Z,4.67
2018-07-27T11:14:43.558Z,4.90
2018-07-27T11:17:10.859Z,5.47
2018-07-27T11:19:38.162Z,4.83
2018-07-27T11:22:05.446Z,5.10
2018-07-27T11:24:32.750Z,4.43
2018-07-27T11:27:00.067Z,4.63
2018-07-27T11:29:27.879Z,4.60
2018-07-27T11:31:55.214Z,4.40
2018-07-27T11:34:22.518Z,4.47
2018-07-27T11:36:50.069Z,5.10
2018-07-27T11:39:17.403Z,5.07
2018-07-27T11:41:45.455Z,4.90
2018-07-27T11:44:12.770Z,4.93
2018-07-27T11:46:40.071Z,4.63
2018-07-27T11:49:07.414Z,5.00
2018-07-27T11:51:34.730Z,5.10
2018-07-27T11:54:02.139Z,4.83
2018-07-27T11:56:29.429Z,4.90
2018-07-27T11:58:56.741Z,4.80
2018-07-27T12:01:24.024Z,4.90
2018-07-27T12:03:51.606Z,5.37
2018-07-27T12:06:19.198Z,4.73
2018-07-27T12:08:46.539Z,4.47
2018-07-27T12:11:13.912Z,4.83
2018-07-27T12:13:41.326Z,4.47
2018-07-27T12:16:08.634Z,4.60
2018-07-27T12:18:35.938Z,4.53
2018-07-27T12:21:03.494Z,4.60
2018-07-27T12:23:30.711Z,4.70
2018-07-27T12:25:58.049Z,4.43
2018-07-27T12:28:25.324Z,4.57
2018-07-27T12:30:52.778Z,4.73
2018-07-27T12:33:20.146Z,4.10
2018-07-27T12:35:47.448Z,4.60
2018-07-27T12:38:14.795Z,4.73
2018-07-27T12:40:42.105Z,4.70
2018-07-27T12:43:09.403Z,4.80
2018-07-27T12:45:36.704Z,4.53
2018-07-27T12:48:04.171Z,4.87
2018-07-27T12:50:31.471Z,4.67
2018-07-27T12:52:59.157Z,4.50
2018-07-27T12:55:26.475Z,4.80
2018-07-27T12:57:53.766Z,4.73
2018-07-27T13:00:21.040Z,4.47
2018-07-27T13:02:48.382Z,4.80
2018-07-27T13:05:15.846Z,4.97
2018-07-27T13:07:43.217Z,4.60
2018-07-27T13:10:10.631Z,4.50
2018-07-27T13:12:38.279Z,5.00
2018-07-27T13:15:06.831Z,4.97
2018-07-27T13:17:34.167Z,4.67
2018-07-27T13:20:01.484Z,4.33
2018-07-27T13:22:28.929Z,4.23
2018-07-27T13:27:24.174Z,4.27
2018-07-27T13:29:51.496Z,3.90
2018-07-27T13:32:18.862Z,4.20
2018-07-27T13:37:15.928Z,4.53
2018-07-27T13:39:44.210Z,3.87
2018-07-27T13:42:13.772Z,3.93
2018-07-27T13:44:41.431Z,3.93
2018-07-27T13:47:09.225Z,3.43
2018-07-27T13:49:36.526Z,4.23
2018-07-27T13:52:04.255Z,3.90
2018-07-27T13:54:32.425Z,4.30
2018-07-27T13:56:59.949Z,4.00
2018-07-27T13:59:27.250Z,3.87
2018-07-27T14:01:54.558Z,4.40
2018-07-27T14:04:21.810Z,4.10
2018-07-27T14:06:50.393Z,4.33
2018-07-27T14:09:17.626Z,3.97
2018-07-27T14:11:44.944Z,4.03
2018-07-27T14:14:12.478Z,4.17
2018-07-27T14:16:40.242Z,3.63
2018-07-27T14:19:07.534Z,3.77
2018-07-27T14:21:34.899Z,3.37
2018-07-27T14:24:02.228Z,3.90
2018-07-27T14:26:29.677Z,3.77
2018-07-27T14:28:56.978Z,3.77
2018-07-27T14:31:24.683Z,3.93
2018-07-27T14:33:52.668Z,3.73
2018-07-27T14:36:19.945Z,4.10
2018-07-27T14:38:47.577Z,3.80
2018-07-27T14:41:14.859Z,4.10
2018-07-27T14:43:42.168Z,3.97
2018-07-27T14:46:09.505Z,3.97
2018-07-27T14:48:36.981Z,3.90
2018-07-27T14:51:04.326Z,4.00
2018-07-27T14:53:31.891Z,4.53
2018-07-27T14:55:59.359Z,4.00
2018-07-27T14:58:27.046Z,4.40
2018-07-27T15:00:54.338Z,3.80
2018-07-27T15:03:21.806Z,4.73
2018-07-27T15:05:49.058Z,4.13
2018-07-27T15:08:16.328Z,4.37
2018-07-27T15:10:43.586Z,4.20
2018-07-27T15:13:11.118Z,4.20
2018-07-27T15:15:38.370Z,4.27
2018-07-27T15:18:05.938Z,4.03
2018-07-27T15:20:33.399Z,4.27
2018-07-27T15:23:00.694Z,4.50
2018-07-27T15:25:27.980Z,4.20
2018-07-27T15:27:55.221Z,4.03
2018-07-27T15:30:22.506Z,4.20
2018-07-27T15:32:49.783Z,4.27
2018-07-27T15:35:17.066Z,4.07
2018-07-27T15:37:44.881Z,4.67
2018-07-27T15:40:12.169Z,3.93
2018-07-27T15:42:39.434Z,4.50
2018-07-27T15:45:06.745Z,4.50
2018-07-27T15:47:34.023Z,4.73
2018-07-27T15:50:01.321Z,4.73
2018-07-27T15:52:28.741Z,4.20
2018-07-27T15:54:56.016Z,4.13
2018-07-27T15:57:23.366Z,4.20
2018-07-27T15:59:50.869Z,4.40
2018-07-27T16:02:18.146Z,3.87
2018-07-27T16:04:45.446Z,4.47
2018-07-27T16:07:12.746Z,4.33
2018-07-27T16:09:40.010Z,4.67
2018-07-27T16:12:07.434Z,4.30
2018-07-27T16:14:34.866Z,4.07
2018-07-27T16:17:02.208Z,4.70
2018-07-27T16:19:31.142Z,4.20
2018-07-27T16:21:59.050Z,4.10
2018-07-27T16:24:26.399Z,4.60
2018-07-27T16:26:53.775Z,4.23
2018-07-27T16:29:21.054Z,4.20
2018-07-27T16:31:48.414Z,4.40
2018-07-27T16:34:15.837Z,4.37
2018-07-27T16:36:43.166Z,4.50
2018-07-27T16:39:10.889Z,4.00
2018-07-27T16:41:38.636Z,4.27
2018-07-27T16:44:06.283Z,4.70
2018-07-27T16:46:33.718Z,4.43
2018-07-27T16:49:01.219Z,4.20
2018-07-27T16:51:28.559Z,4.30
2018-07-27T16:53:55.835Z,4.17
2018-07-27T16:56:23.656Z,4.60
2018-07-27T16:58:51.226Z,4.67
2018-07-27T17:01:18.630Z,4.37
2018-07-27T17:03:45.946Z,4.33
2018-07-27T17:06:13.312Z,4.10
2018-07-27T17:08:40.632Z,4.00
2018-07-27T17:11:07.948Z,4.70
2018-07-27T17:13:35.274Z,4.60
2018-07-27T17:16:02.744Z,4.07
2018-07-27T17:18:30.237Z,4.60
2018-07-27T17:20:58.523Z,4.30
2018-07-27T17:23:25.887Z,4.43
2018-07-27T17:25:53.251Z,4.70
2018-07-27T17:28:20.737Z,4.70
2018-07-27T17:30:48.023Z,4.60
2018-07-27T17:33:15.286Z,5.13
2018-07-27T17:35:42.577Z,4.40
2018-07-27T17:38:09.894Z,4.20
2018-07-27T17:40:37.159Z,4.43
2018-07-27T17:43:04.619Z,4.60
2018-07-27T17:45:31.927Z,5.00
2018-07-27T17:47:59.217Z,4.60
2018-07-27T17:50:27.317Z,4.43
2018-07-27T17:52:55.335Z,4.10
2018-07-27T17:55:22.855Z,4.60
2018-07-27T17:57:50.145Z,4.40
2018-07-27T18:00:17.406Z,4.40
2018-07-27T18:02:44.705Z,4.70
2018-07-27T18:05:12.020Z,4.33
2018-07-27T18:07:39.377Z,5.00
2018-07-27T18:10:06.636Z,4.57
2018-07-27T18:12:33.927Z,4.63
2018-07-27T18:15:01.207Z,4.80
2018-07-27T18:17:28.508Z,6.07
2018-07-27T18:19:55.790Z,5.50
2018-07-27T18:22:23.062Z,5.90
2018-07-27T18:24:50.308Z,5.70
2018-07-27T18:27:17.602Z,4.97
2018-07-27T18:29:44.875Z,4.70
2018-07-27T18:32:12.139Z,4.90
2018-07-27T18:34:39.415Z,5.13
2018-07-27T18:37:06.734Z,5.07
2018-07-27T18:39:34.046Z,4.90
2018-07-27T18:42:01.298Z,4.63
2018-07-27T18:44:28.588Z,5.27
2018-07-27T18:46:55.840Z,4.57
2018-07-27T18:49:23.088Z,5.10
2018-07-27T18:51:50.367Z,4.97
2018-07-27T18:54:17.642Z,4.90
2018-07-27T18:56:44.941Z,5.30
2018-07-27T18:59:12.246Z,5.00
2018-07-27T19:01:39.593Z,5.30
2018-07-27T19:04:07.041Z,5.23
2018-07-27T19:06:34.320Z,5.13
2018-07-27T19:09:01.618Z,5.40
2018-07-27T19:11:28.877Z,6.13
2018-07-27T19:13:56.206Z,5.57
2018-07-27T19:16:23.595Z,6.20
2018-07-27T19:18:50.898Z,5.40
2018-07-27T19:21:18.174Z,5.60
2018-07-27T19:23:45.470Z,5.40
2018-07-27T19:26:12.760Z,5.20
2018-07-27T19:28:40.022Z,5.50
2018-07-27T19:31:07.748Z,5.43
2018-07-27T19:33:35.007Z,5.80
2018-07-27T19:36:02.342Z,5.67
2018-07-27T19:38:29.674Z,5.87
2018-07-27T19:40:56.948Z,6.10
2018-07-27T19:43:24.277Z,5.13
2018-07-27T19:45:51.637Z,6.27
2018-07-27T19:48:19.108Z,4.83
2018-07-27T19:50:46.427Z,5.37
2018-07-27T19:53:13.737Z,5.50
2018-07-27T19:55:41.032Z,6.47
2018-07-27T19:58:08.341Z,5.97
2018-07-27T20:00:35.838Z,6.03
2018-07-27T20:03:03.160Z,6.40
2018-07-27T20:05:30.494Z,6.30
2018-07-27T20:07:57.837Z,6.20
2018-07-27T20:10:25.119Z,6.07
2018-07-27T20:12:52.463Z,5.63
2018-07-27T20:16:22.802Z,6.23
2018-07-27T20:18:50.085Z,5.43
2018-07-27T20:21:17.376Z,5.90
2018-07-27T20:23:44.697Z,6.50
2018-07-27T20:26:11.954Z,6.63
2018-07-27T20:28:39.226Z,6.80
2018-07-27T20:31:06.556Z,6.33
2018-07-27T20:33:33.897Z,6.17
2018-07-27T20:36:01.179Z,6.43
2018-07-27T20:38:28.449Z,6.63
2018-07-27T20:40:55.734Z,6.60
2018-07-27T20:43:23.165Z,6.63
2018-07-27T20:45:50.503Z,6.80
2018-07-27T20:48:17.769Z,6.70
2018-07-27T20:50:45.039Z,6.50
2018-07-27T20:53:12.361Z,6.30
2018-07-27T20:55:39.638Z,6.67
2018-07-27T20:58:06.927Z,6.60
2018-07-27T21:00:34.223Z,6.47
2018-07-27T21:03:01.493Z,7.33
2018-07-27T21:05:29.321Z,7.07
2018-07-27T21:07:56.612Z,7.00
2018-07-27T21:10:23.870Z,6.80
2018-07-27T21:12:51.107Z,6.93
2018-07-27T21:15:18.363Z,6.93
2018-07-27T21:17:45.622Z,6.73
2018-07-27T21:20:12.875Z,6.80
2018-07-27T21:22:40.118Z,6.40
2018-07-27T21:25:07.568Z,6.90
2018-07-27T21:27:34.858Z,7.20
2018-07-27T21:30:02.187Z,6.43
2018-07-27T21:32:29.414Z,7.50
2018-07-27T21:34:56.663Z,6.97
2018-07-27T21:37:23.943Z,6.97
2018-07-27T21:39:51.196Z,7.70
2018-07-27T21:42:18.468Z,7.27
2018-07-27T21:44:45.746Z,7.00
2018-07-27T21:47:13.002Z,7.03
2018-07-27T21:49:40.266Z,6.53
2018-07-27T21:52:07.528Z,6.57
2018-07-27T21:54:34.779Z,8.10
2018-07-27T21:57:02.062Z,7.30
2018-07-27T22:03:02.251Z,7.40
2018-07-27T22:05:29.606Z,6.67
2018-07-27T22:07:56.842Z,7.23
2018-07-27T22:10:24.928Z,7.17
2018-07-27T22:12:52.375Z,6.63
2018-07-27T22:15:22.300Z,7.13
2018-07-27T22:17:49.743Z,7.30
2018-07-27T22:20:17.020Z,7.40
2018-07-27T22:22:44.263Z,7.20
2018-07-27T22:25:11.514Z,7.33
2018-07-27T22:27:38.773Z,7.10
2018-07-27T22:30:07.474Z,7.07
2018-07-27T22:32:34.722Z,6.80
2018-07-27T22:35:01.976Z,7.07
2018-07-27T22:37:29.242Z,7.40
2018-07-27T22:39:56.546Z,7.40
2018-07-27T22:42:23.773Z,7.40
2018-07-27T22:44:51.031Z,7.10
2018-07-27T22:47:18.283Z,6.90
2018-07-27T22:49:45.535Z,8.03
2018-07-27T22:52:12.771Z,7.50
2018-07-27T22:54:40.027Z,7.07
2018-07-27T22:57:07.262Z,7.27
2018-07-27T22:59:35.023Z,7.30
2018-07-27T23:02:02.311Z,7.37
2018-07-27T23:04:29.554Z,7.73
2018-07-27T23:06:56.779Z,7.70
2018-07-27T23:09:24.042Z,6.63
2018-07-27T23:11:51.306Z,7.17
2018-07-27T23:14:18.559Z,7.07
2018-07-27T23:16:45.839Z,7.70
2018-07-27T23:19:13.088Z,7.20
2018-07-27T23:21:40.350Z,6.83
2018-07-27T23:24:07.578Z,7.13
2018-07-27T23:26:34.838Z,7.83
2018-07-27T23:29:02.092Z,7.60
2018-07-27T23:31:29.353Z,7.73
2018-07-27T23:33:56.634Z,7.63
2018-07-27T23:36:23.873Z,7.73
2018-07-27T23:38:51.155Z,7.70
2018-07-27T23:41:18.410Z,7.70
2018-07-27T23:43:45.661Z,7.40
2018-07-27T23:46:12.999Z,6.77
2018-07-27T23:48:40.209Z,7.33
2018-07-27T23:51:07.670Z,7.60
2018-07-27T23:53:34.905Z,7.83
2018-07-27T23:56:02.177Z,7.63
2018-07-27T23:58:29.450Z,7.70
